Time;durP1;ratioP1;P1;durP2;ratioP2;P2;SDS_P1;SDS_P2;PMS_P1;PMS_P2;Temp;Humidity;BMP_temperature;BMP_pressure;BME280_temperature;BME280_humidity;BME280_pressure;Samples;Min_cycle;Max_cycle;Signal;HPM_P1;HPM_P2
2024/03/25 00:00:13;;;;;;;12.27;4.95;;;23.70;99.90;;;;;;5052929;28;20033;-42
2024/03/25 00:02:40;;;;;;;10.32;4.75;;;23.70;99.90;;;;;;5053022;28;20024;-41
2024/03/25 00:05:09;;;;;;;10.57;4.95;;;23.70;99.90;;;;;;5053172;28;20087;-41
2024/03/25 00:07:36;;;;;;;14.98;4.97;;;23.70;99.90;;;;;;5052963;28;20106;-41
2024/03/25 00:10:02;;;;;;;12.02;5.20;;;23.70;99.90;;;;;;5052768;28;20032;-41
2024/03/25 00:12:28;;;;;;;9.27;5.07;;;23.70;99.90;;;;;;5052918;28;20021;-41
2024/03/25 00:14:54;;;;;;;12.02;5.65;;;23.70;99.90;;;;;;5052712;28;20025;-41
2024/03/25 00:17:20;;;;;;;11.82;4.85;;;23.70;99.90;;;;;;5052877;28;20032;-41
2024/03/25 00:19:52;;;;;;;8.15;4.75;;;23.70;99.90;;;;;;5052768;28;20044;-41
2024/03/25 00:22:19;;;;;;;17.42;5.38;;;23.70;99.90;;;;;;5052734;28;20013;-41
2024/03/25 00:24:46;;;;;;;11.13;4.97;;;23.70;99.90;;;;;;5052897;28;20436;-41
2024/03/25 00:27:12;;;;;;;11.10;5.35;;;23.70;99.90;;;;;;5035145;28;20354;-45
2024/03/25 00:29:38;;;;;;;11.00;4.30;;;23.70;99.90;;;;;;5052647;28;20051;-41
2024/03/25 00:32:05;;;;;;;9.80;4.63;;;23.70;99.90;;;;;;5052817;28;20025;-41
2024/03/25 00:34:32;;;;;;;13.98;4.85;;;23.70;99.90;;;;;;5052937;28;20113;-42
2024/03/25 00:37:01;;;;;;;9.65;5.35;;;23.60;99.90;;;;;;5052590;28;20021;-41
2024/03/25 00:39:27;;;;;;;8.40;4.40;;;23.70;99.90;;;;;;5052306;28;20446;-41
2024/03/25 00:41:54;;;;;;;12.88;4.60;;;23.60;99.90;;;;;;5052707;28;20029;-41
2024/03/25 00:44:19;;;;;;;12.43;4.18;;;23.70;99.90;;;;;;5034585;28;20036;-41
2024/03/25 00:46:46;;;;;;;9.95;5.38;;;23.70;99.90;;;;;;5052503;28;20432;-42
2024/03/25 00:49:12;;;;;;;10.48;4.55;;;23.60;99.90;;;;;;5052760;28;20099;-41
2024/03/25 00:51:38;;;;;;;12.38;4.22;;;23.60;99.90;;;;;;5052462;28;20365;-41
2024/03/25 00:54:04;;;;;;;12.73;5.15;;;23.60;99.90;;;;;;5052675;28;20032;-41
2024/03/25 00:56:31;;;;;;;10.68;5.05;;;23.60;99.90;;;;;;5052543;28;20033;-41
2024/03/25 00:58:58;;;;;;;11.13;4.77;;;23.60;99.90;;;;;;5052315;28;20021;-42
2024/03/25 01:01:24;;;;;;;11.15;4.80;;;23.60;99.90;;;;;;5052982;28;20025;-41
2024/03/25 01:03:50;;;;;;;8.23;4.50;;;23.60;99.90;;;;;;5052814;28;20025;-42
2024/03/25 01:06:16;;;;;;;13.82;5.22;;;23.60;99.90;;;;;;5052522;28;20100;-41
2024/03/25 01:08:41;;;;;;;8.73;5.03;;;23.50;99.90;;;;;;5054170;28;20071;-41
2024/03/25 01:11:07;;;;;;;12.25;5.03;;;23.60;99.90;;;;;;5056247;28;20044;-42
2024/03/25 01:13:33;;;;;;;11.05;4.65;;;23.60;99.90;;;;;;5055839;28;20033;-41
2024/03/25 01:15:59;;;;;;;10.02;5.00;;;23.60;99.90;;;;;;5055845;28;20033;-41
2024/03/25 01:18:25;;;;;;;7.72;4.40;;;23.60;99.90;;;;;;5056026;28;20078;-42
2024/03/25 01:20:50;;;;;;;10.48;4.25;;;23.50;99.90;;;;;;5055875;28;20033;-41
2024/03/25 01:23:16;;;;;;;11.32;4.63;;;23.60;99.90;;;;;;5055752;28;20088;-45
2024/03/25 01:25:42;;;;;;;11.45;4.55;;;23.60;99.90;;;;;;5055624;28;20049;-42
2024/03/25 01:28:08;;;;;;;12.02;4.28;;;23.60;99.90;;;;;;5056126;28;20081;-41
2024/03/25 01:30:35;;;;;;;13.45;4.85;;;23.50;99.90;;;;;;5055874;28;20120;-41
2024/03/25 01:33:02;;;;;;;12.43;5.03;;;23.50;99.90;;;;;;5055591;28;20020;-41
2024/03/25 01:35:28;;;;;;;9.60;4.45;;;23.50;99.90;;;;;;5037937;28;20067;-41
2024/03/25 01:37:54;;;;;;;10.10;4.72;;;23.50;99.90;;;;;;5055674;28;20048;-42
2024/03/25 01:40:19;;;;;;;10.32;4.20;;;23.50;99.90;;;;;;5055648;28;20122;-41
2024/03/25 01:42:59;;;;;;;10.50;5.00;;;23.50;99.90;;;;;;5037621;28;20175;-41
2024/03/25 01:45:27;;;;;;;12.70;5.68;;;23.50;99.90;;;;;;5055357;28;20103;-41
2024/03/25 01:47:54;;;;;;;12.30;4.55;;;23.50;99.90;;;;;;5055573;28;20036;-42
2024/03/25 01:50:21;;;;;;;12.55;5.28;;;23.50;99.90;;;;;;5055612;28;20025;-42
2024/03/25 01:52:48;;;;;;;9.50;5.15;;;23.50;99.90;;;;;;5055188;28;20126;-42
2024/03/25 01:55:20;;;;;;;12.48;4.80;;;23.50;99.90;;;;;;5055107;28;20025;-42
2024/03/25 01:57:47;;;;;;;13.55;5.13;;;23.50;99.90;;;;;;5055363;28;20025;-42
2024/03/25 02:00:14;;;;;;;11.48;5.65;;;23.50;99.90;;;;;;5055521;28;20361;-42
2024/03/25 02:02:44;;;;;;;8.05;4.35;;;23.50;99.90;;;;;;5055277;28;20025;-42
2024/03/25 02:05:11;;;;;;;11.95;5.18;;;23.50;99.90;;;;;;5054694;28;20039;-43
2024/03/25 02:07:38;;;;;;;10.27;4.25;;;23.50;99.90;;;;;;5053217;28;20025;-42
2024/03/25 02:10:04;;;;;;;13.55;4.57;;;23.50;99.90;;;;;;5054406;28;20033;-42
2024/03/25 02:12:32;;;;;;;11.68;4.82;;;23.50;99.90;;;;;;5037091;28;20049;-43
2024/03/25 02:14:59;;;;;;;20.20;6.03;;;23.50;99.90;;;;;;5054716;28;20534;-42
2024/03/25 02:17:25;;;;;;;14.88;5.85;;;23.40;99.90;;;;;;5054567;28;20021;-42
2024/03/25 02:19:51;;;;;;;9.57;4.88;;;23.40;99.90;;;;;;5053423;28;20037;-42
2024/03/25 02:22:17;;;;;;;11.32;5.50;;;23.40;99.90;;;;;;5055193;28;20049;-42
2024/03/25 02:24:46;;;;;;;14.57;6.35;;;23.40;99.90;;;;;;5054504;28;20469;-42
2024/03/25 02:27:15;;;;;;;11.27;5.35;;;23.40;99.90;;;;;;5054451;28;20021;-42
2024/03/25 02:29:41;;;;;;;15.13;4.85;;;23.40;99.90;;;;;;5054497;28;20462;-42
2024/03/25 02:32:10;;;;;;;11.68;5.13;;;23.40;99.90;;;;;;5054712;28;20021;-42
2024/03/25 02:34:44;;;;;;;14.45;5.60;;;23.40;99.90;;;;;;5054468;28;20140;-42
2024/03/25 02:37:10;;;;;;;12.20;5.32;;;23.40;99.90;;;;;;5054695;28;20031;-42
2024/03/25 02:39:36;;;;;;;16.42;4.70;;;23.40;99.90;;;;;;5053996;28;20049;-42
2024/03/25 02:42:02;;;;;;;10.35;5.05;;;23.40;99.90;;;;;;5054203;28;20020;-42
2024/03/25 02:44:29;;;;;;;8.38;4.97;;;23.40;99.90;;;;;;5054350;28;20032;-42
2024/03/25 02:46:55;;;;;;;10.23;5.70;;;23.40;99.90;;;;;;5054397;28;20031;-42
2024/03/25 02:49:21;;;;;;;12.63;5.68;;;23.40;99.90;;;;;;5054214;28;20265;-42
2024/03/25 02:51:47;;;;;;;11.77;4.45;;;23.40;99.90;;;;;;5053970;28;20025;-41
2024/03/25 02:54:13;;;;;;;12.85;5.32;;;23.40;99.90;;;;;;5053466;28;20535;-42
2024/03/25 02:56:40;;;;;;;9.68;4.70;;;23.40;99.90;;;;;;5035940;28;20388;-42
2024/03/25 02:59:06;;;;;;;9.48;4.93;;;23.40;99.90;;;;;;5053967;28;20053;-42
2024/03/25 03:01:32;;;;;;;11.45;5.05;;;23.40;99.90;;;;;;5037090;28;20104;-42
2024/03/25 03:03:58;;;;;;;9.93;4.75;;;23.30;99.90;;;;;;5053934;28;20484;-42
2024/03/25 03:06:24;;;;;;;12.98;5.07;;;23.40;99.90;;;;;;5054257;28;20021;-42
2024/03/25 03:08:50;;;;;;;11.63;5.30;;;23.40;99.90;;;;;;5036063;28;20033;-42
2024/03/25 03:11:15;;;;;;;8.65;4.13;;;23.40;99.90;;;;;;5053728;28;20025;-42
2024/03/25 03:13:41;;;;;;;12.18;4.78;;;23.40;99.90;;;;;;5053594;28;20017;-42
2024/03/25 03:16:07;;;;;;;13.57;5.18;;;23.30;99.90;;;;;;5053391;28;20489;-42
2024/03/25 03:18:33;;;;;;;10.00;4.95;;;23.40;99.90;;;;;;5053398;28;20388;-42
2024/03/25 03:20:58;;;;;;;8.63;4.43;;;23.30;99.90;;;;;;5053385;28;20378;-42
2024/03/25 03:23:24;;;;;;;10.32;4.75;;;23.30;99.90;;;;;;5035932;28;20025;-41
2024/03/25 03:25:50;;;;;;;9.15;4.70;;;23.30;99.90;;;;;;5053484;28;20080;-43
2024/03/25 03:28:17;;;;;;;12.82;4.60;;;23.30;99.90;;;;;;5053209;28;20496;-42
2024/03/25 03:30:43;;;;;;;8.10;4.85;;;23.30;99.90;;;;;;5052940;28;20381;-43
2024/03/25 03:33:09;;;;;;;10.20;4.93;;;23.30;99.90;;;;;;5053359;28;20047;-42
2024/03/25 03:35:35;;;;;;;10.02;4.93;;;23.30;99.90;;;;;;5053354;28;20099;-42
2024/03/25 03:38:02;;;;;;;12.93;5.25;;;23.30;99.90;;;;;;5053069;28;20116;-42
2024/03/25 03:40:29;;;;;;;9.88;4.47;;;23.30;99.90;;;;;;5035073;28;20110;-41
2024/03/25 03:42:55;;;;;;;13.68;4.95;;;23.30;99.90;;;;;;5053124;28;20025;-42
2024/03/25 03:45:24;;;;;;;9.98;4.55;;;23.30;99.90;;;;;;5053085;28;20039;-42
2024/03/25 03:47:50;;;;;;;9.45;3.78;;;23.30;99.90;;;;;;5053135;28;20108;-42
2024/03/25 03:50:15;;;;;;;15.13;4.72;;;23.20;99.90;;;;;;5053033;28;20100;-42
2024/03/25 03:52:41;;;;;;;8.25;4.63;;;23.30;99.90;;;;;;5052957;28;20024;-46
2024/03/25 03:55:08;;;;;;;11.82;4.85;;;23.20;99.90;;;;;;5035265;28;20029;-42
2024/03/25 03:57:34;;;;;;;9.85;4.22;;;23.20;99.90;;;;;;5052845;28;20020;-43
2024/03/25 04:00:00;;;;;;;13.80;5.27;;;23.20;99.90;;;;;;5052940;28;20068;-42
2024/03/25 04:02:28;;;;;;;7.30;4.68;;;23.20;99.90;;;;;;5053549;28;20258;-42
2024/03/25 04:04:54;;;;;;;;;;;23.20;99.90;;;;;;5053467;28;20497;-42
2024/03/25 04:07:23;;;;;;;10.57;4.65;;;23.20;99.90;;;;;;5035191;28;19999;-41
2024/03/25 04:09:49;;;;;;;9.57;4.38;;;23.20;99.90;;;;;;5034832;28;20029;-42
2024/03/25 04:12:15;;;;;;;8.00;4.20;;;23.20;99.90;;;;;;5052680;28;20021;-42
2024/03/25 04:14:40;;;;;;;9.13;4.65;;;23.20;99.90;;;;;;5052754;28;20021;-42
2024/03/25 04:17:06;;;;;;;13.45;5.20;;;23.20;99.90;;;;;;5052615;28;20025;-42
2024/03/25 04:19:32;;;;;;;10.15;4.15;;;23.20;99.90;;;;;;5052676;28;20040;-42
2024/03/25 04:21:58;;;;;;;10.85;4.45;;;23.20;99.90;;;;;;5034811;28;20350;-42
2024/03/25 04:24:25;;;;;;;9.63;4.60;;;23.20;99.90;;;;;;5052928;28;20051;-42
2024/03/25 04:26:50;;;;;;;10.73;4.40;;;23.20;99.90;;;;;;5052772;28;20056;-42
2024/03/25 04:29:16;;;;;;;9.25;4.28;;;23.20;99.90;;;;;;5052670;28;20057;-42
2024/03/25 04:31:42;;;;;;;8.48;3.90;;;23.20;99.90;;;;;;5052699;28;20491;-42
2024/03/25 04:34:08;;;;;;;9.27;4.32;;;23.20;99.90;;;;;;5052515;28;20056;-42
2024/03/25 04:36:33;;;;;;;9.18;3.85;;;23.20;99.90;;;;;;5052728;28;20021;-42
2024/03/25 04:38:59;;;;;;;14.32;5.22;;;23.10;99.90;;;;;;5052475;28;20523;-42
2024/03/25 04:41:25;;;;;;;8.15;3.88;;;23.20;99.90;;;;;;5052570;28;20048;-43
2024/03/25 04:43:51;;;;;;;8.68;3.92;;;23.10;99.90;;;;;;5054711;28;20358;-42
2024/03/25 04:46:16;;;;;;;8.35;3.65;;;23.20;99.90;;;;;;5056332;28;20506;-43
2024/03/25 04:48:42;;;;;;;10.50;4.35;;;23.20;99.90;;;;;;5056510;28;20029;-43
2024/03/25 04:51:09;;;;;;;11.13;4.30;;;23.10;99.90;;;;;;5056099;28;20112;-42
2024/03/25 04:53:34;;;;;;;7.85;3.92;;;23.20;99.90;;;;;;5054839;28;20076;-42
2024/03/25 04:56:00;;;;;;;9.32;4.05;;;23.10;99.90;;;;;;5055607;28;20484;-42
2024/03/25 04:58:26;;;;;;;9.10;4.25;;;23.10;99.90;;;;;;5054000;28;20025;-42
2024/03/25 05:00:52;;;;;;;8.75;4.13;;;23.10;99.90;;;;;;5055510;28;20041;-43
2024/03/25 05:03:18;;;;;;;9.60;4.18;;;23.10;99.90;;;;;;5056113;28;20056;-41
2024/03/25 05:05:44;;;;;;;10.70;4.65;;;23.10;99.90;;;;;;5055939;28;20033;-41
2024/03/25 05:08:10;;;;;;;8.63;3.58;;;23.10;99.90;;;;;;5056004;28;20021;-41
2024/03/25 05:10:36;;;;;;;10.15;3.90;;;23.10;99.90;;;;;;5055903;28;20096;-41
2024/03/25 05:13:01;;;;;;;7.40;3.58;;;23.10;99.90;;;;;;5056011;28;20028;-41
2024/03/25 05:15:27;;;;;;;6.28;3.67;;;23.10;99.90;;;;;;5055642;28;20025;-40
2024/03/25 05:17:53;;;;;;;8.10;4.20;;;23.10;99.90;;;;;;5055732;28;20033;-42
2024/03/25 05:20:18;;;;;;;7.88;3.53;;;23.10;99.90;;;;;;5055690;28;20389;-42
2024/03/25 05:22:44;;;;;;;11.55;4.18;;;23.10;99.90;;;;;;5055875;28;20442;-42
2024/03/25 05:25:10;;;;;;;11.85;3.60;;;23.10;99.90;;;;;;5055597;28;20029;-42
2024/03/25 05:27:36;;;;;;;8.35;3.60;;;23.10;99.90;;;;;;5055587;28;20021;-42
2024/03/25 05:30:02;;;;;;;8.73;3.92;;;23.10;99.90;;;;;;5037568;28;20041;-42
2024/03/25 05:32:28;;;;;;;7.38;3.75;;;23.10;99.90;;;;;;5055458;28;20463;-42
2024/03/25 05:34:53;;;;;;;11.27;3.28;;;23.10;99.90;;;;;;5037453;28;20032;-43
2024/03/25 05:37:19;;;;;;;9.43;3.78;;;23.00;99.90;;;;;;5037382;28;20538;-42
2024/03/25 05:39:45;;;;;;;11.95;4.53;;;23.10;99.90;;;;;;5055003;28;20512;-42
2024/03/25 05:42:11;;;;;;;10.30;3.47;;;23.10;99.90;;;;;;5055410;28;20053;-43
2024/03/25 05:44:36;;;;;;;9.85;3.90;;;23.00;99.90;;;;;;5055256;28;20029;-42
2024/03/25 05:47:02;;;;;;;9.85;4.13;;;23.10;99.90;;;;;;5037592;28;20119;-41
2024/03/25 05:49:28;;;;;;;8.73;3.42;;;23.10;99.90;;;;;;5055183;28;20025;-42
2024/03/25 05:51:54;;;;;;;7.28;3.40;;;23.00;99.90;;;;;;5055256;28;20029;-43
2024/03/25 05:54:20;;;;;;;9.73;3.38;;;23.00;99.90;;;;;;5054682;28;20032;-43
2024/03/25 05:56:46;;;;;;;8.45;3.92;;;23.00;99.90;;;;;;5055151;28;20029;-43
2024/03/25 05:59:11;;;;;;;8.20;3.65;;;23.00;99.90;;;;;;5055012;28;20029;-42
2024/03/25 06:01:37;;;;;;;12.07;3.65;;;23.00;99.90;;;;;;5053269;28;20055;-41
2024/03/25 06:04:04;;;;;;;5.78;3.00;;;23.00;99.90;;;;;;5053986;28;20029;-42
2024/03/25 06:06:29;;;;;;;10.07;3.60;;;23.00;99.90;;;;;;5054637;28;20099;-42
2024/03/25 06:08:55;;;;;;;8.27;3.90;;;23.00;99.90;;;;;;5055009;28;20104;-42
2024/03/25 06:11:21;;;;;;;10.05;4.13;;;23.00;99.90;;;;;;5053727;28;20021;-42
2024/03/25 06:13:47;;;;;;;7.47;3.08;;;23.00;99.90;;;;;;5055140;28;20377;-42
2024/03/25 06:16:13;;;;;;;8.65;3.30;;;23.00;99.90;;;;;;5054650;28;20092;-42
2024/03/25 06:18:42;;;;;;;13.70;3.88;;;23.00;99.90;;;;;;5036654;28;20064;-42
2024/03/25 06:21:08;;;;;;;12.65;4.40;;;23.00;99.90;;;;;;5054655;28;20028;-42
2024/03/25 06:23:33;;;;;;;8.65;3.83;;;23.00;99.90;;;;;;5054399;28;20028;-43
2024/03/25 06:25:59;;;;;;;6.72;2.88;;;23.00;99.90;;;;;;5054473;28;20037;-43
2024/03/25 06:28:25;;;;;;;7.90;3.35;;;23.00;99.90;;;;;;5054515;28;20487;-42
2024/03/25 06:36:21;;;;;;;7.63;3.78;;;23.00;99.90;;;;;;5039533;28;20101;-42
2024/03/25 06:38:47;;;;;;;9.18;3.53;;;23.00;99.90;;;;;;5054007;28;20540;-43
2024/03/25 06:41:13;;;;;;;5.35;2.53;;;22.90;99.90;;;;;;5054718;28;20036;-42
2024/03/25 06:43:39;;;;;;;10.75;3.95;;;23.00;99.90;;;;;;5054034;28;20020;-42
2024/03/25 06:46:06;;;;;;;10.77;3.78;;;22.90;99.90;;;;;;5054004;28;20029;-42
2024/03/25 06:48:34;;;;;;;7.57;3.00;;;22.90;99.90;;;;;;5054038;28;20017;-42
2024/03/25 06:51:02;;;;;;;7.68;4.03;;;22.90;99.90;;;;;;5053837;28;20332;-42
2024/03/25 06:53:28;;;;;;;7.03;3.33;;;22.90;99.90;;;;;;5035946;28;20025;-42
2024/03/25 06:56:03;;;;;;;11.07;3.97;;;22.90;99.90;;;;;;5053903;28;20051;-42
2024/03/25 06:58:29;;;;;;;8.35;3.33;;;22.90;99.90;;;;;;5053808;28;20469;-42
2024/03/25 07:00:56;;;;;;;10.10;3.72;;;22.90;99.90;;;;;;5053740;28;20044;-42
2024/03/25 07:03:23;;;;;;;9.32;3.10;;;22.90;99.90;;;;;;5053718;28;20020;-42
2024/03/25 07:05:55;;;;;;;11.40;3.40;;;22.90;99.90;;;;;;5053039;28;20060;-41
2024/03/25 07:08:21;;;;;;;7.95;3.60;;;22.90;99.90;;;;;;5053645;28;20025;-42
2024/03/25 07:10:47;;;;;;;7.53;3.15;;;22.90;99.90;;;;;;5053695;28;20070;-42
2024/03/25 07:13:13;;;;;;;10.50;3.38;;;22.90;99.90;;;;;;5053673;28;20029;-41
2024/03/25 07:15:39;;;;;;;11.68;3.38;;;22.90;99.90;;;;;;5053708;28;20017;-43
2024/03/25 07:18:05;;;;;;;10.98;3.08;;;22.90;99.90;;;;;;5053719;28;20096;-42
2024/03/25 07:20:32;;;;;;;8.05;3.55;;;22.90;99.90;;;;;;5053374;28;20040;-41
2024/03/25 07:22:58;;;;;;;9.18;3.65;;;22.90;99.90;;;;;;5053479;28;20104;-41
2024/03/25 07:25:25;;;;;;;11.48;3.30;;;22.90;99.90;;;;;;5053479;28;20025;-41
2024/03/25 07:27:51;;;;;;;9.82;3.50;;;22.90;99.90;;;;;;5035582;28;20017;-41
2024/03/25 07:30:17;;;;;;;11.07;3.30;;;22.90;99.90;;;;;;5035802;28;20027;-41
2024/03/25 07:32:45;;;;;;;8.68;3.53;;;22.90;99.90;;;;;;5053538;28;20107;-43
2024/03/25 07:35:11;;;;;;;11.13;3.15;;;22.90;99.90;;;;;;5053594;28;20040;-41
2024/03/25 07:37:37;;;;;;;12.60;3.58;;;22.90;99.90;;;;;;5035324;28;20029;-42
2024/03/25 07:40:06;;;;;;;6.07;3.30;;;22.90;99.90;;;;;;5052884;28;20437;-42
2024/03/25 07:42:31;;;;;;;10.55;3.08;;;22.90;99.90;;;;;;5053277;28;20377;-41
2024/03/25 07:44:57;;;;;;;8.57;2.63;;;22.90;99.90;;;;;;5053009;28;20074;-41
2024/03/25 07:47:23;;;;;;;10.10;3.40;;;22.90;99.90;;;;;;5053181;28;20505;-42
2024/03/25 07:49:49;;;;;;;9.82;3.47;;;22.90;99.90;;;;;;5053234;28;20382;-41
2024/03/25 07:52:14;;;;;;;12.00;4.00;;;22.90;99.90;;;;;;5053155;28;20381;-42
2024/03/25 07:54:42;;;;;;;10.02;3.58;;;22.90;99.90;;;;;;5053324;28;20021;-42
2024/03/25 07:57:09;;;;;;;10.32;4.00;;;22.90;99.90;;;;;;5020154;28;20024;-42
2024/03/25 07:59:35;;;;;;;8.75;3.30;;;22.90;99.90;;;;;;5052716;28;20431;-42
2024/03/25 08:02:00;;;;;;;5.97;2.67;;;22.90;99.90;;;;;;5052929;28;20021;-42
2024/03/25 08:04:26;;;;;;;9.95;3.35;;;22.90;99.90;;;;;;5035432;28;20040;-41
2024/03/25 08:06:52;;;;;;;7.53;2.88;;;22.90;99.90;;;;;;5053250;28;20104;-44
2024/03/25 08:09:18;;;;;;;8.93;3.35;;;22.90;99.90;;;;;;5052971;28;20036;-42
2024/03/25 08:11:44;;;;;;;9.10;3.20;;;22.90;99.90;;;;;;5035063;28;20469;-42
2024/03/25 08:14:10;;;;;;;10.77;3.63;;;22.90;99.90;;;;;;5053063;28;20098;-43
2024/03/25 08:16:36;;;;;;;11.15;3.50;;;22.90;99.90;;;;;;5052880;28;20028;-42
2024/03/25 08:19:02;;;;;;;5.43;2.75;;;22.90;99.90;;;;;;5056851;28;20071;-41
2024/03/25 08:21:28;;;;;;;10.00;3.38;;;22.90;99.90;;;;;;5038753;28;20485;-41
2024/03/25 08:23:54;;;;;;;11.45;3.00;;;22.90;99.90;;;;;;5056844;28;20032;-41
2024/03/25 08:26:20;;;;;;;9.02;3.38;;;22.90;99.90;;;;;;5038914;28;20108;-41
2024/03/25 08:28:45;;;;;;;7.53;3.35;;;22.90;99.90;;;;;;5056634;28;20455;-41
2024/03/25 08:31:11;;;;;;;7.07;3.10;;;22.90;99.90;;;;;;5056704;28;20052;-41
2024/03/25 08:33:37;;;;;;;13.48;3.15;;;22.90;99.90;;;;;;5056788;28;20028;-42
2024/03/25 08:36:03;;;;;;;8.35;3.28;;;22.90;99.90;;;;;;5056470;28;20465;-41
2024/03/25 08:38:29;;;;;;;10.98;4.25;;;22.90;99.90;;;;;;5056580;28;20025;-41
2024/03/25 08:40:55;;;;;;;13.52;3.83;;;22.90;99.90;;;;;;5056459;28;20424;-42
2024/03/25 08:43:21;;;;;;;7.63;3.08;;;22.90;99.90;;;;;;5056503;28;20025;-42
2024/03/25 08:45:46;;;;;;;10.55;3.50;;;22.90;99.90;;;;;;5056465;28;20427;-41
2024/03/25 08:48:12;;;;;;;9.77;3.10;;;22.90;99.90;;;;;;5056228;28;20025;-41
2024/03/25 08:50:38;;;;;;;10.60;3.30;;;22.90;99.90;;;;;;5038228;28;20025;-42
2024/03/25 08:53:04;;;;;;;11.43;3.53;;;22.90;99.90;;;;;;5056238;28;20047;-41
2024/03/25 08:55:30;;;;;;;11.07;3.42;;;22.80;99.90;;;;;;5056247;28;20477;-42
2024/03/25 08:58:00;;;;;;;9.80;3.78;;;22.90;99.90;;;;;;5056459;28;20427;-41
2024/03/25 09:00:29;;;;;;;11.55;3.63;;;22.90;99.90;;;;;;5056046;28;20032;-43
2024/03/25 09:02:55;;;;;;;11.25;3.88;;;22.90;99.90;;;;;;5056066;28;20021;-41
2024/03/25 09:05:21;;;;;;;10.02;3.80;;;22.90;99.90;;;;;;5055966;28;20099;-41
2024/03/25 09:07:51;;;;;;;9.20;3.05;;;22.90;99.90;;;;;;5055759;28;20025;-42
2024/03/25 09:13:03;;;;;;;11.48;4.07;;;22.90;99.90;;;;;;5056078;28;20028;-41
2024/03/25 09:15:29;;;;;;;10.70;4.00;;;22.90;99.90;;;;;;5055831;28;20039;-41
2024/03/25 09:17:55;;;;;;;12.98;3.90;;;22.90;99.90;;;;;;5055673;28;20021;-41
2024/03/25 09:20:21;;;;;;;7.47;3.13;;;22.90;99.90;;;;;;5055703;28;20503;-41
2024/03/25 09:22:50;;;;;;;13.02;3.95;;;22.90;99.90;;;;;;5055651;28;20449;-41
2024/03/25 09:25:16;;;;;;;11.85;3.53;;;22.90;99.90;;;;;;5055440;28;20536;-42
2024/03/25 09:27:46;;;;;;;8.20;3.70;;;22.90;99.90;;;;;;5055488;28;20100;-42
2024/03/25 09:30:13;;;;;;;8.15;3.35;;;22.90;99.90;;;;;;5055136;28;20115;-42
2024/03/25 09:32:42;;;;;;;10.10;3.92;;;22.90;99.90;;;;;;5055694;28;20032;-42
2024/03/25 09:35:09;;;;;;;10.48;3.80;;;22.90;99.90;;;;;;5055611;28;20036;-42
2024/03/25 09:37:35;;;;;;;11.68;3.92;;;22.90;99.90;;;;;;5055749;28;20488;-42
2024/03/25 09:40:01;;;;;;;14.48;3.63;;;22.90;99.90;;;;;;5037397;28;20081;-43
2024/03/25 09:42:32;;;;;;;9.43;3.28;;;22.90;99.90;;;;;;5055744;28;20049;-42
2024/03/25 09:44:58;;;;;;;9.30;3.53;;;22.90;99.90;;;;;;5055424;28;20063;-42
2024/03/25 09:47:24;;;;;;;12.27;3.28;;;22.90;99.90;;;;;;5055377;28;20049;-42
2024/03/25 09:49:51;;;;;;;13.10;4.00;;;23.00;99.90;;;;;;5055324;28;20108;-42
2024/03/25 09:52:17;;;;;;;;;;;23.00;99.90;;;;;;5055765;28;20029;-43
2024/03/25 09:54:43;;;;;;;13.07;3.88;;;23.00;99.90;;;;;;5055389;28;19912;-42
2024/03/25 09:57:09;;;;;;;14.02;4.43;;;23.10;99.90;;;;;;5055171;28;20049;-42
2024/03/25 09:59:35;;;;;;;9.85;4.32;;;23.00;99.90;;;;;;5055015;28;20029;-42
2024/03/25 10:02:03;;;;;;;14.40;4.25;;;23.00;99.90;;;;;;5055222;28;20522;-41
2024/03/25 10:04:29;;;;;;;12.27;3.97;;;23.00;99.90;;;;;;5055172;28;20104;-41
2024/03/25 10:06:55;;;;;;;11.60;4.53;;;23.00;99.90;;;;;;5055146;28;20029;-42
2024/03/25 10:09:22;;;;;;;11.68;4.00;;;23.00;99.90;;;;;;5054890;28;20118;-42
2024/03/25 10:11:49;;;;;;;11.52;4.30;;;23.00;99.90;;;;;;5036828;28;20531;-42
2024/03/25 10:14:15;;;;;;;18.37;5.10;;;23.00;99.90;;;;;;5055009;28;20029;-42
2024/03/25 10:16:42;;;;;;;8.13;3.57;;;23.00;99.90;;;;;;5054827;28;20274;-42
2024/03/25 10:19:08;;;;;;;9.40;4.35;;;23.10;99.90;;;;;;5054795;28;20031;-43
2024/03/25 10:21:34;;;;;;;12.32;3.97;;;23.10;99.90;;;;;;5036614;28;20025;-43
2024/03/25 10:24:00;;;;;;;12.73;4.43;;;23.10;99.90;;;;;;5054815;28;20096;-42
2024/03/25 10:26:35;;;;;;;12.38;4.00;;;23.10;99.90;;;;;;5054616;28;20385;-42
2024/03/25 10:29:07;;;;;;;13.75;4.55;;;23.10;99.90;;;;;;5054608;28;20017;-41
2024/03/25 10:31:34;;;;;;;12.48;4.15;;;23.10;99.90;;;;;;5054457;28;20091;-42
2024/03/25 10:34:00;;;;;;;11.20;4.40;;;23.10;99.90;;;;;;5036422;28;20116;-42
2024/03/25 10:36:26;;;;;;;14.32;4.30;;;23.10;99.90;;;;;;5036521;28;20025;-43
2024/03/25 10:38:57;;;;;;;11.10;4.07;;;23.10;99.90;;;;;;5054063;28;20077;-42
2024/03/25 10:41:25;;;;;;;13.57;4.47;;;23.10;99.90;;;;;;5053396;28;20028;-42
2024/03/25 10:43:53;;;;;;;14.80;4.78;;;23.10;99.90;;;;;;5036301;28;20059;-42
2024/03/25 10:46:21;;;;;;;13.88;4.45;;;23.10;99.90;;;;;;5054064;28;20029;-42
2024/03/25 10:49:01;;;;;;;12.23;4.03;;;23.10;99.90;;;;;;5054072;28;20104;-43
2024/03/25 10:51:28;;;;;;;12.18;4.22;;;23.10;99.90;;;;;;5054210;28;20021;-42
2024/03/25 10:53:55;;;;;;;10.98;3.70;;;23.10;99.90;;;;;;5052825;28;20059;-41
2024/03/25 10:56:22;;;;;;;13.45;4.63;;;23.10;99.90;;;;;;5054124;28;20084;-41
2024/03/25 10:58:50;;;;;;;12.82;4.15;;;23.10;99.90;;;;;;5053935;28;20386;-42
2024/03/25 11:01:18;;;;;;;11.48;4.15;;;23.10;99.90;;;;;;5054219;28;20036;-42
2024/03/25 11:03:45;;;;;;;;;;;23.10;99.90;;;;;;5054460;28;20021;-41
2024/03/25 11:06:12;;;;;;;11.05;4.22;;;23.10;99.90;;;;;;5053659;28;19905;-41
2024/03/25 11:08:38;;;;;;;11.13;3.90;;;23.10;99.90;;;;;;5053845;28;20366;-42
2024/03/25 11:11:05;;;;;;;14.53;3.97;;;23.10;99.90;;;;;;5054031;28;20112;-41
2024/03/25 11:13:31;;;;;;;13.30;4.88;;;23.10;99.90;;;;;;5053819;28;20077;-42
2024/03/25 11:15:59;;;;;;;13.52;4.70;;;23.10;99.90;;;;;;5053624;28;20036;-42
2024/03/25 11:18:26;;;;;;;14.50;5.32;;;23.10;99.90;;;;;;5053501;28;20021;-41
2024/03/25 11:21:05;;;;;;;11.13;4.43;;;23.10;99.90;;;;;;5053576;28;20045;-42
2024/03/25 11:23:47;;;;;;;12.25;4.30;;;23.10;99.90;;;;;;5053576;28;20025;-42
2024/03/25 11:26:24;;;;;;;11.70;4.47;;;23.10;99.90;;;;;;5053452;28;20383;-43
2024/03/25 11:28:50;;;;;;;12.77;5.07;;;23.10;99.90;;;;;;5053407;28;20025;-42
2024/03/25 11:31:19;;;;;;;13.75;4.95;;;23.10;99.90;;;;;;5053630;28;20044;-41
2024/03/25 11:33:45;;;;;;;14.02;4.43;;;23.10;99.90;;;;;;5053585;28;20025;-41
2024/03/25 11:36:10;;;;;;;17.55;5.13;;;23.10;99.90;;;;;;5053252;28;20039;-42
2024/03/25 11:38:40;;;;;;;14.63;5.20;;;23.10;99.90;;;;;;5053179;28;20045;-42
2024/03/25 11:41:06;;;;;;;12.95;4.30;;;23.10;99.90;;;;;;5053266;28;20036;-41
2024/03/25 11:43:33;;;;;;;11.77;4.57;;;23.10;99.90;;;;;;5053231;28;20427;-40
2024/03/25 11:45:59;;;;;;;19.50;5.13;;;23.10;99.90;;;;;;5035448;28;20469;-42
2024/03/25 11:48:25;;;;;;;13.88;4.32;;;23.10;99.90;;;;;;5053111;28;20028;-41
2024/03/25 11:50:50;;;;;;;13.48;4.43;;;23.10;99.90;;;;;;5053217;28;20067;-42
2024/03/25 11:53:16;;;;;;;16.38;5.28;;;23.10;99.90;;;;;;5052879;28;20056;-42
2024/03/25 11:55:47;;;;;;;13.57;4.15;;;23.10;99.90;;;;;;5053023;28;20029;-42
2024/03/25 11:58:14;;;;;;;12.80;4.40;;;23.10;99.90;;;;;;5053222;28;20544;-43
2024/03/25 12:00:51;;;;;;;19.63;5.38;;;23.10;99.90;;;;;;5053211;28;20056;-42
2024/03/25 12:03:20;;;;;;;16.48;5.65;;;23.10;99.90;;;;;;5053182;28;20079;-42
2024/03/25 12:05:46;;;;;;;15.05;5.10;;;23.10;99.90;;;;;;5052890;28;20463;-39
2024/03/25 12:08:13;;;;;;;20.55;5.40;;;23.10;99.90;;;;;;5053053;28;20036;-41
2024/03/25 12:13:24;;;;;;;15.60;4.60;;;23.10;99.90;;;;;;5052764;28;20542;-40
2024/03/25 12:15:51;;;;;;;9.45;5.32;;;23.10;99.90;;;;;;5052965;28;20040;-41
2024/03/25 12:18:18;;;;;;;12.80;4.47;;;23.10;99.90;;;;;;5035387;28;20053;-41
2024/03/25 12:20:48;;;;;;;14.32;5.78;;;23.10;99.90;;;;;;5052989;28;20029;-42
2024/03/25 12:23:14;;;;;;;12.90;4.40;;;23.10;99.90;;;;;;5052923;28;20017;-42
2024/03/25 12:25:40;;;;;;;10.18;4.25;;;23.10;99.90;;;;;;5034941;28;20021;-42
2024/03/25 12:28:10;;;;;;;15.40;5.00;;;23.10;99.90;;;;;;5052967;28;20036;-43
2024/03/25 12:30:53;;;;;;;12.45;4.35;;;23.20;99.90;;;;;;5052868;28;20032;-43
2024/03/25 12:33:19;;;;;;;9.00;4.15;;;23.10;99.90;;;;;;5052736;28;20438;-42
2024/03/25 12:35:49;;;;;;;12.73;5.07;;;23.20;99.90;;;;;;5052758;28;20048;-42
2024/03/25 12:38:22;;;;;;;14.05;4.32;;;23.10;99.90;;;;;;5052684;28;20466;-41
2024/03/25 12:40:48;;;;;;;13.48;4.95;;;23.20;99.90;;;;;;5052496;28;20040;-41
2024/03/25 12:43:16;;;;;;;13.77;4.78;;;23.20;99.90;;;;;;5052767;28;20023;-41
2024/03/25 12:45:42;;;;;;;9.98;4.03;;;23.20;99.90;;;;;;5052672;28;20124;-42
2024/03/25 12:48:09;;;;;;;12.65;4.40;;;23.20;99.90;;;;;;5052532;28;20431;-42